Time;durP1;ratioP1;P1;durP2;ratioP2;P2;SDS_P1;SDS_P2;PMS_P1;PMS_P2;Temp;Humidity;BMP_temperature;BMP_pressure;BME280_temperature;BME280_humidity;BME280_pressure;Samples;Min_cycle;Max_cycle;Signal;HPM_P1;HPM_P2
2022/08/20 00:00:07;;;;;;;4.73;4.23;;;21.30;99.90;;;;;;5015069;28;20454;-78
2022/08/20 00:02:39;;;;;;;6.00;4.60;;;21.20;99.90;;;;;;5014781;28;20987;-77
2022/08/20 00:05:06;;;;;;;5.07;4.37;;;21.20;99.90;;;;;;5014579;28;20501;-77
2022/08/20 00:07:33;;;;;;;6.73;4.87;;;21.20;99.90;;;;;;5014966;28;20497;-77
2022/08/20 00:10:01;;;;;;;5.43;4.53;;;21.20;99.90;;;;;;5014562;28;20463;-77
2022/08/20 00:12:28;;;;;;;10.63;5.00;;;21.10;99.90;;;;;;5014558;28;20471;-77
2022/08/20 00:14:55;;;;;;;8.13;5.40;;;21.10;99.90;;;;;;5013925;28;20485;-77
2022/08/20 00:17:21;;;;;;;5.00;4.60;;;21.10;99.90;;;;;;5014732;28;20446;-77
2022/08/20 00:19:48;;;;;;;6.30;5.15;;;21.10;99.90;;;;;;5014481;28;20619;-77
2022/08/20 00:22:15;;;;;;;6.50;4.80;;;21.10;99.90;;;;;;5014311;28;20639;-77
2022/08/20 00:24:41;;;;;;;6.93;5.10;;;21.10;99.90;;;;;;5014635;28;20858;-77
2022/08/20 00:27:09;;;;;;;5.80;5.03;;;21.00;99.90;;;;;;5014566;28;20504;-77
2022/08/20 00:29:36;;;;;;;5.70;5.07;;;21.00;99.90;;;;;;5014560;28;20512;-77
2022/08/20 00:32:03;;;;;;;5.50;4.80;;;21.00;99.90;;;;;;5014248;28;20523;-77
2022/08/20 00:34:30;;;;;;;8.27;5.03;;;21.00;99.90;;;;;;5014034;28;20231;-77
2022/08/20 00:36:56;;;;;;;6.90;4.90;;;21.00;99.90;;;;;;5013893;28;20446;-76
2022/08/20 00:39:23;;;;;;;7.95;5.30;;;21.00;99.90;;;;;;5014013;28;20942;-76
2022/08/20 00:41:50;;;;;;;5.97;5.10;;;20.90;99.90;;;;;;5014105;28;20231;-77
2022/08/20 00:44:21;;;;;;;5.30;4.80;;;20.90;99.90;;;;;;5014003;28;20446;-76
2022/08/20 00:46:49;;;;;;;5.93;5.33;;;20.90;99.90;;;;;;5013965;28;20537;-76
2022/08/20 00:49:20;;;;;;;7.40;5.50;;;20.90;99.90;;;;;;5013853;28;20451;-77
2022/08/20 00:51:52;;;;;;;7.13;5.70;;;20.90;99.90;;;;;;5014059;28;20617;-76
2022/08/20 00:54:22;;;;;;;7.43;5.40;;;20.90;99.90;;;;;;5013883;28;20582;-76
2022/08/20 00:56:53;;;;;;;6.03;5.13;;;20.90;99.90;;;;;;5013853;28;20451;-76
2022/08/20 00:59:25;;;;;;;8.63;4.90;;;20.90;99.90;;;;;;5013777;28;21004;-76
2022/08/20 01:01:52;;;;;;;6.20;5.60;;;20.80;99.90;;;;;;5013688;28;20533;-77
2022/08/20 01:04:19;;;;;;;11.23;5.23;;;20.70;99.90;;;;;;5013581;28;20868;-77
2022/08/20 01:06:47;;;;;;;10.80;5.60;;;20.70;99.90;;;;;;5013608;28;20451;-77
2022/08/20 01:09:14;;;;;;;7.77;4.83;;;20.70;99.90;;;;;;5013574;28;20976;-76
2022/08/20 01:11:40;;;;;;;7.32;5.50;;;20.60;99.90;;;;;;5013513;28;20469;-77
2022/08/20 01:14:22;;;;;;;7.40;5.70;;;20.60;99.90;;;;;;5013390;28;20232;-76
2022/08/20 01:16:54;;;;;;;5.57;5.07;;;20.50;99.90;;;;;;5013607;28;20475;-76
2022/08/20 01:19:39;;;;;;;7.47;5.57;;;20.50;99.90;;;;;;5013560;28;20871;-76
2022/08/20 01:23:25;;;;;;;10.13;6.27;;;20.50;99.90;;;;;;5013527;28;20899;-76
2022/08/20 01:25:02;;;;;;;8.67;5.97;;;20.50;99.90;;;;;;5012776;28;20458;-77
2022/08/20 01:27:31;;;;;;;9.23;6.07;;;20.60;99.90;;;;;;5012789;28;20451;-76
2022/08/20 01:30:00;;;;;;;10.70;6.00;;;20.60;99.90;;;;;;5013511;28;20451;-76
2022/08/20 01:32:27;;;;;;;12.23;6.57;;;20.70;99.90;;;;;;5013177;28;20479;-76
2022/08/20 01:34:53;;;;;;;8.65;6.40;;;20.70;99.90;;;;;;5012859;28;20990;-76
2022/08/20 01:37:20;;;;;;;8.93;6.50;;;20.70;99.90;;;;;;5013231;28;20208;-76
2022/08/20 01:39:47;;;;;;;10.95;6.47;;;20.70;99.90;;;;;;5013203;28;20462;-77
2022/08/20 01:42:20;;;;;;;7.75;6.65;;;20.80;99.90;;;;;;5013102;28;20231;-77
2022/08/20 01:44:48;;;;;;;7.83;6.33;;;20.80;99.90;;;;;;5012830;28;20675;-76
2022/08/20 01:47:25;;;;;;;7.70;6.23;;;20.80;99.90;;;;;;5012938;28;20459;-77
2022/08/20 01:49:55;;;;;;;6.90;6.20;;;20.80;99.90;;;;;;5013060;28;20926;-76
2022/08/20 01:52:29;;;;;;;7.10;6.13;;;20.80;99.90;;;;;;5012806;28;21052;-77
2022/08/20 01:54:56;;;;;;;6.73;5.50;;;20.80;99.90;;;;;;5012380;28;20481;-76
2022/08/20 01:57:25;;;;;;;10.40;6.23;;;20.70;99.90;;;;;;5012805;28;20490;-77
2022/08/20 01:59:53;;;;;;;6.67;5.97;;;20.80;99.90;;;;;;5012714;28;20459;-76
2022/08/20 02:02:20;;;;;;;8.30;6.55;;;20.80;99.90;;;;;;5012307;28;20462;-77
2022/08/20 02:04:47;;;;;;;6.27;5.67;;;20.70;99.90;;;;;;5012625;28;20210;-77
2022/08/20 02:07:16;;;;;;;7.90;7.20;;;20.60;99.90;;;;;;5012781;28;20455;-76
2022/08/20 02:09:44;;;;;;;9.53;6.20;;;20.60;99.90;;;;;;5012588;28;20494;-77
2022/08/20 02:12:13;;;;;;;6.93;6.10;;;20.60;99.90;;;;;;5012592;28;20475;-77
2022/08/20 02:14:41;;;;;;;7.53;6.30;;;20.60;99.90;;;;;;5012545;28;20483;-77
2022/08/20 02:17:10;;;;;;;7.95;6.13;;;20.60;99.90;;;;;;5012473;28;20454;-76
2022/08/20 02:19:40;;;;;;;8.77;6.40;;;20.60;99.90;;;;;;5012511;28;20208;-77
2022/08/20 02:22:14;;;;;;;6.67;5.97;;;20.60;99.90;;;;;;5012613;28;20474;-76
2022/08/20 02:24:42;;;;;;;6.83;6.13;;;20.60;99.90;;;;;;5012772;28;20463;-77
2022/08/20 02:27:08;;;;;;;7.57;6.57;;;20.60;99.90;;;;;;5012257;28;20498;-76
2022/08/20 02:29:35;;;;;;;7.80;6.40;;;20.60;99.90;;;;;;5012144;28;20462;-77
2022/08/20 02:32:02;;;;;;;7.50;6.17;;;20.60;99.90;;;;;;5012252;28;20478;-77
2022/08/20 02:34:29;;;;;;;8.27;6.50;;;20.60;99.90;;;;;;5012101;28;20453;-77
2022/08/20 02:36:56;;;;;;;8.83;6.80;;;20.70;99.90;;;;;;5012226;28;20443;-77
2022/08/20 02:39:24;;;;;;;8.73;6.43;;;20.60;99.90;;;;;;5012176;28;20446;-76
2022/08/20 02:41:51;;;;;;;6.97;6.27;;;20.70;99.90;;;;;;5012135;28;20494;-76
2022/08/20 02:44:19;;;;;;;6.35;5.72;;;20.70;99.90;;;;;;5011886;28;20454;-77
2022/08/20 02:46:46;;;;;;;9.50;7.10;;;20.70;99.90;;;;;;5012096;28;20208;-77
2022/08/20 02:49:13;;;;;;;6.53;5.93;;;20.70;99.90;;;;;;5012041;28;20462;-76
2022/08/20 02:51:40;;;;;;;7.50;6.53;;;20.70;99.90;;;;;;5011899;28;20505;-76
2022/08/20 02:54:07;;;;;;;7.43;6.73;;;20.70;99.90;;;;;;5011863;28;20212;-77
2022/08/20 02:56:34;;;;;;;12.25;7.00;;;20.70;99.90;;;;;;5011735;28;20508;-76
2022/08/20 02:59:01;;;;;;;7.63;6.87;;;20.70;99.90;;;;;;5012046;28;20266;-77
2022/08/20 03:01:28;;;;;;;10.07;7.50;;;20.70;99.90;;;;;;5011920;28;21003;-76
2022/08/20 03:03:55;;;;;;;10.18;6.93;;;20.60;99.90;;;;;;5011955;28;20458;-77
2022/08/20 03:06:22;;;;;;;10.05;7.40;;;20.60;99.90;;;;;;5011724;28;20210;-76
2022/08/20 03:08:51;;;;;;;8.07;7.27;;;20.60;99.90;;;;;;5012007;28;20216;-77
2022/08/20 03:11:17;;;;;;;8.80;7.57;;;20.60;99.90;;;;;;5011895;28;20447;-77
2022/08/20 03:13:44;;;;;;;12.40;7.30;;;20.60;99.90;;;;;;5011977;28;20455;-77
2022/08/20 03:16:11;;;;;;;8.60;7.43;;;20.80;99.90;;;;;;5011599;28;20483;-77
2022/08/20 03:18:41;;;;;;;8.50;7.63;;;20.70;99.90;;;;;;5011880;28;20477;-77
2022/08/20 03:21:08;;;;;;;9.87;8.03;;;20.60;99.90;;;;;;5011835;28;20447;-77
2022/08/20 03:23:36;;;;;;;8.67;7.40;;;20.70;99.90;;;;;;5011503;28;21021;-76
2022/08/20 03:26:05;;;;;;;9.87;8.83;;;20.60;99.90;;;;;;5011699;28;20458;-77
2022/08/20 03:28:32;;;;;;;10.33;8.07;;;20.70;99.90;;;;;;5011789;28;20451;-76
2022/08/20 03:30:59;;;;;;;9.33;7.27;;;20.70;99.90;;;;;;5011598;28;20455;-76
2022/08/20 03:33:27;;;;;;;8.55;7.50;;;20.60;99.90;;;;;;5011846;28;20442;-77
2022/08/20 03:35:54;;;;;;;11.60;8.60;;;20.60;99.90;;;;;;5011215;28;20224;-76
2022/08/20 03:38:22;;;;;;;11.33;10.13;;;20.60;99.90;;;;;;5011575;28;20508;-76
2022/08/20 03:40:50;;;;;;;11.30;9.40;;;20.60;99.90;;;;;;5011917;28;20450;-76
2022/08/20 03:43:18;;;;;;;11.63;9.87;;;20.60;99.90;;;;;;5011580;28;20479;-76
2022/08/20 03:45:46;;;;;;;17.60;11.40;;;20.60;99.90;;;;;;5011232;28;20452;-76
2022/08/20 03:48:16;;;;;;;13.40;11.50;;;20.60;99.90;;;;;;5011511;28;20446;-77
2022/08/20 03:50:44;;;;;;;12.43;11.13;;;20.50;99.90;;;;;;5014174;28;20861;-77
2022/08/20 03:53:13;;;;;;;12.73;11.40;;;20.50;99.90;;;;;;5015354;28;20474;-77
2022/08/20 03:55:41;;;;;;;13.73;11.83;;;20.50;99.90;;;;;;5014612;28;21005;-77
2022/08/20 03:58:09;;;;;;;13.10;11.40;;;20.50;99.90;;;;;;5015164;28;20485;-77
2022/08/20 04:00:42;;;;;;;14.17;11.73;;;20.50;99.90;;;;;;5014952;28;20508;-77
2022/08/20 04:03:10;;;;;;;15.80;12.07;;;20.50;99.90;;;;;;5014639;28;20463;-76
2022/08/20 04:05:39;;;;;;;14.90;13.10;;;20.40;99.90;;;;;;5014881;28;20517;-77
2022/08/20 04:08:08;;;;;;;15.57;13.13;;;20.50;99.90;;;;;;5014702;28;20540;-77
2022/08/20 04:10:35;;;;;;;19.60;12.60;;;20.50;99.90;;;;;;5014895;28;20948;-77
2022/08/20 04:13:02;;;;;;;14.10;12.63;;;20.50;99.90;;;;;;5014765;28;20926;-78
2022/08/20 04:15:31;;;;;;;14.40;12.90;;;20.50;99.90;;;;;;5014087;28;20993;-77
2022/08/20 04:17:59;;;;;;;14.53;12.83;;;20.40;99.90;;;;;;5014570;28;20487;-77
2022/08/20 04:20:26;;;;;;;15.33;13.57;;;20.40;99.90;;;;;;5014504;28;20952;-77
2022/08/20 04:22:55;;;;;;;14.70;13.20;;;20.40;99.90;;;;;;5014558;28;20501;-77
2022/08/20 04:25:21;;;;;;;13.50;12.10;;;20.50;99.90;;;;;;5014313;28;20649;-77
2022/08/20 04:27:49;;;;;;;15.23;12.27;;;20.40;99.90;;;;;;5014445;28;20447;-76
2022/08/20 04:30:17;;;;;;;15.10;13.60;;;20.50;99.90;;;;;;5014256;28;20456;-77
2022/08/20 04:32:44;;;;;;;13.40;12.00;;;20.40;99.90;;;;;;5014554;28;20471;-77
2022/08/20 04:35:14;;;;;;;14.90;13.17;;;20.40;99.90;;;;;;5014224;28;20497;-77
2022/08/20 04:37:42;;;;;;;15.37;13.70;;;20.40;99.90;;;;;;5014797;28;20438;-76
2022/08/20 04:43:04;;;;;;;15.93;13.80;;;20.40;99.90;;;;;;4989722;28;20462;-76
2022/08/20 04:45:31;;;;;;;22.23;15.55;;;20.40;99.90;;;;;;5013768;28;20508;-76
2022/08/20 04:48:04;;;;;;;20.20;14.00;;;20.30;99.90;;;;;;5014122;28;20208;-77
2022/08/20 04:50:34;;;;;;;17.93;15.13;;;20.20;99.90;;;;;;5013997;28;20732;-77
2022/08/20 04:53:01;;;;;;;18.85;14.63;;;20.10;99.90;;;;;;5014082;28;20474;-77
2022/08/20 04:55:28;;;;;;;26.27;15.30;;;20.10;99.90;;;;;;5013396;28;20232;-77
2022/08/20 04:57:56;;;;;;;19.33;16.33;;;20.00;99.90;;;;;;5013661;28;20840;-77
2022/08/20 05:00:23;;;;;;;18.70;16.70;;;20.00;99.90;;;;;;5013776;28;20460;-76
2022/08/20 05:02:49;;;;;;;21.85;17.23;;;19.90;99.90;;;;;;5013905;28;20474;-76
2022/08/20 05:05:16;;;;;;;18.97;15.07;;;19.90;99.90;;;;;;5013425;28;20204;-76
2022/08/20 05:07:45;;;;;;;18.80;16.50;;;19.80;99.90;;;;;;5013492;28;20502;-77
2022/08/20 05:10:14;;;;;;;18.07;15.87;;;19.80;99.90;;;;;;5013619;28;20846;-77
2022/08/20 05:12:42;;;;;;;23.10;18.35;;;19.70;99.90;;;;;;5013411;28;21063;-77
2022/08/20 05:15:10;;;;;;;22.47;17.57;;;19.70;99.90;;;;;;5013064;28;20643;-77
2022/08/20 05:17:36;;;;;;;21.17;17.03;;;19.60;99.90;;;;;;5013437;28;20447;-77
2022/08/20 05:20:04;;;;;;;23.10;17.43;;;19.60;99.90;;;;;;5013433;28;20484;-77
2022/08/20 05:22:31;;;;;;;19.63;17.53;;;19.60;99.90;;;;;;5013065;28;20441;-77
2022/08/20 05:25:00;;;;;;;22.03;17.00;;;19.60;99.90;;;;;;5013270;28;20426;-77
2022/08/20 05:27:27;;;;;;;30.90;19.57;;;19.70;99.90;;;;;;5013102;28;20480;-77
2022/08/20 05:29:54;;;;;;;20.33;16.83;;;19.70;99.90;;;;;;5013316;28;20426;-77
2022/08/20 05:32:21;;;;;;;18.87;16.80;;;19.70;99.90;;;;;;5013132;28;21029;-77
2022/08/20 05:34:48;;;;;;;18.93;15.53;;;19.70;99.90;;;;;;5012845;28;20509;-77
2022/08/20 05:37:16;;;;;;;19.65;15.70;;;19.60;99.90;;;;;;5013252;28;20425;-77
2022/08/20 05:39:42;;;;;;;23.83;16.63;;;19.70;99.90;;;;;;5013187;28;20212;-77
2022/08/20 05:42:11;;;;;;;16.47;14.23;;;19.70;99.90;;;;;;5012789;28;20453;-77
2022/08/20 05:44:37;;;;;;;16.10;14.40;;;19.70;99.90;;;;;;5013009;28;20454;-77
2022/08/20 05:47:05;;;;;;;17.03;14.63;;;19.70;99.90;;;;;;5012645;28;20454;-77
2022/08/20 05:49:32;;;;;;;15.60;14.00;;;19.80;99.90;;;;;;5012752;28;20483;-77
2022/08/20 05:51:59;;;;;;;22.83;14.70;;;19.80;99.90;;;;;;5012741;28;20582;-77
2022/08/20 05:54:26;;;;;;;14.43;12.93;;;19.90;99.90;;;;;;5012895;28;20420;-77
2022/08/20 05:56:53;;;;;;;14.17;12.77;;;20.00;99.90;;;;;;5012460;28;20501;-77
2022/08/20 05:59:23;;;;;;;15.07;12.83;;;20.00;99.90;;;;;;5012840;28;20470;-77
2022/08/20 06:01:49;;;;;;;13.30;12.00;;;20.00;99.90;;;;;;5012424;28;20856;-77
2022/08/20 06:04:25;;;;;;;18.20;14.40;;;20.00;99.90;;;;;;5012477;28;20947;-77
2022/08/20 06:06:53;;;;;;;16.23;12.67;;;20.10;99.90;;;;;;5012494;28;20511;-77
2022/08/20 06:09:22;;;;;;;15.53;13.03;;;20.00;99.90;;;;;;5012570;28;21010;-77
2022/08/20 06:11:49;;;;;;;13.60;12.20;;;20.00;99.90;;;;;;5011825;28;20885;-77
2022/08/20 06:14:16;;;;;;;14.00;12.50;;;20.10;99.90;;;;;;5012447;28;20446;-77
2022/08/20 06:16:44;;;;;;;13.50;12.10;;;20.10;99.90;;;;;;5011796;28;20479;-77
2022/08/20 06:19:11;;;;;;;12.70;11.50;;;20.10;99.90;;;;;;5012344;28;20439;-77
2022/08/20 06:21:39;;;;;;;13.10;11.20;;;20.10;99.90;;;;;;5012279;28;20453;-77
2022/08/20 06:24:07;;;;;;;12.43;11.13;;;20.30;99.90;;;;;;5012349;28;20434;-77
2022/08/20 06:26:34;;;;;;;11.65;10.55;;;20.20;99.90;;;;;;5012106;28;20494;-77
2022/08/20 06:29:01;;;;;;;14.73;10.90;;;20.30;99.90;;;;;;5012568;28;20270;-78
2022/08/20 06:31:28;;;;;;;12.57;11.33;;;20.30;99.90;;;;;;5012104;28;21128;-78
2022/08/20 06:33:56;;;;;;;11.73;10.53;;;20.40;99.90;;;;;;5012273;28;20472;-78
2022/08/20 06:36:23;;;;;;;12.90;11.00;;;20.50;99.90;;;;;;5011774;28;20486;-78
2022/08/20 06:38:50;;;;;;;11.53;10.33;;;20.70;99.90;;;;;;5012169;28;21026;-78
2022/08/20 06:41:17;;;;;;;10.83;9.73;;;20.80;99.90;;;;;;5011965;28;20455;-78
2022/08/20 06:43:43;;;;;;;10.53;9.43;;;21.00;99.90;;;;;;5011976;28;20455;-78
2022/08/20 06:46:11;;;;;;;9.53;8.73;;;21.20;99.90;;;;;;5011883;28;20953;-78
2022/08/20 06:48:38;;;;;;;9.53;8.60;;;21.60;99.90;;;;;;5012165;28;20486;-78
2022/08/20 06:51:06;;;;;;;8.97;8.17;;;22.10;99.90;;;;;;5012071;28;20541;-78
2022/08/20 06:53:33;;;;;;;10.27;7.87;;;22.50;99.90;;;;;;5011861;28;20508;-78
2022/08/20 06:56:00;;;;;;;7.73;7.13;;;22.70;99.90;;;;;;5011599;28;20482;-78
2022/08/20 06:58:26;;;;;;;7.73;7.10;;;22.90;99.90;;;;;;5012055;28;20505;-78
2022/08/20 07:00:53;;;;;;;7.53;6.93;;;23.00;99.90;;;;;;5011856;28;20953;-78
2022/08/20 07:03:20;;;;;;;7.40;6.70;;;23.10;99.90;;;;;;5011920;28;20474;-78
2022/08/20 07:05:46;;;;;;;6.87;6.37;;;23.00;99.90;;;;;;5011738;28;20451;-78
2022/08/20 07:08:17;;;;;;;7.75;7.00;;;23.00;99.90;;;;;;5012159;28;20457;-78
2022/08/20 07:10:44;;;;;;;6.97;6.45;;;22.90;99.90;;;;;;5011786;28;20211;-78
2022/08/20 07:13:13;;;;;;;6.67;6.07;;;22.70;99.90;;;;;;5012271;28;20281;-78
2022/08/20 07:15:40;;;;;;;6.40;5.90;;;22.60;99.90;;;;;;5011798;28;20482;-78
2022/08/20 07:18:07;;;;;;;7.30;6.70;;;22.60;99.90;;;;;;5011744;28;20257;-78
2022/08/20 07:20:37;;;;;;;10.60;6.60;;;22.60;99.90;;;;;;5012130;28;20452;-78
2022/08/20 07:23:04;;;;;;;7.03;6.37;;;22.60;99.90;;;;;;5011918;28;20470;-78
2022/08/20 07:25:33;;;;;;;7.77;6.53;;;22.90;99.90;;;;;;5014430;28;20456;-78
2022/08/20 07:28:01;;;;;;;6.67;6.10;;;23.00;99.90;;;;;;5015902;28;20546;-78
2022/08/20 07:33:13;;;;;;;6.50;5.97;;;23.40;99.90;;;;;;5015626;28;20875;-78
2022/08/20 07:35:40;;;;;;;7.10;5.60;;;23.80;99.90;;;;;;5015060;28;21014;-79
2022/08/20 07:38:07;;;;;;;5.07;4.67;;;24.30;99.90;;;;;;5015548;28;20458;-78
2022/08/20 07:40:35;;;;;;;5.20;4.80;;;24.60;99.90;;;;;;5015418;28;20446;-78
2022/08/20 07:43:02;;;;;;;5.75;5.28;;;24.70;99.90;;;;;;5015278;28;20560;-79
2022/08/20 07:45:30;;;;;;;4.90;4.60;;;24.80;99.90;;;;;;5015106;28;20690;-78
2022/08/20 07:48:06;;;;;;;4.82;4.38;;;24.90;99.90;;;;;;5015404;28;20461;-78
2022/08/20 07:50:33;;;;;;;4.97;4.60;;;24.60;99.90;;;;;;5015416;28;20218;-78
2022/08/20 07:53:00;;;;;;;5.07;4.57;;;24.50;99.90;;;;;;5015211;28;20547;-79
2022/08/20 07:55:27;;;;;;;4.90;4.60;;;24.30;99.90;;;;;;5014959;28;20534;-78
2022/08/20 07:57:57;;;;;;;5.10;4.60;;;24.20;99.90;;;;;;5016145;28;20503;-81
2022/08/20 08:00:25;;;;;;;6.53;5.90;;;24.20;99.90;;;;;;5017447;28;20513;-82
2022/08/20 08:02:52;;;;;;;6.20;5.67;;;24.10;99.90;;;;;;5017288;28;20479;-81
2022/08/20 08:05:19;;;;;;;3.70;3.50;;;23.90;99.90;;;;;;5017924;28;20450;-81
2022/08/20 08:07:46;;;;;;;4.35;4.05;;;24.00;99.90;;;;;;5017273;28;20364;-80
2022/08/20 08:10:18;;;;;;;3.72;3.47;;;23.90;99.90;;;;;;5017171;28;20218;-81
2022/08/20 08:12:50;;;;;;;5.67;3.53;;;23.90;99.90;;;;;;5016956;28;20248;-82
2022/08/20 08:15:22;;;;;;;5.80;4.13;;;23.90;99.90;;;;;;5017204;28;20633;-81
2022/08/20 08:17:51;;;;;;;4.30;4.00;;;23.90;99.90;;;;;;5016947;28;20526;-82
2022/08/20 08:20:21;;;;;;;4.57;4.27;;;23.90;99.90;;;;;;5016748;28;20517;-81
2022/08/20 08:22:48;;;;;;;4.00;3.80;;;23.90;99.90;;;;;;5016860;28;20514;-81
2022/08/20 08:25:15;;;;;;;3.75;3.55;;;23.90;99.90;;;;;;5016453;28;20454;-80
2022/08/20 08:27:45;;;;;;;3.80;3.60;;;23.80;99.90;;;;;;5016492;28;20690;-81
2022/08/20 08:30:12;;;;;;;4.33;3.93;;;23.90;99.90;;;;;;5017115;28;20208;-80
2022/08/20 08:33:26;;;;;;;4.53;4.17;;;23.90;99.90;;;;;;5015363;28;20516;-81
2022/08/20 08:35:27;;;;;;;7.63;3.70;;;23.90;99.90;;;;;;5015592;28;20451;-81
2022/08/20 08:37:54;;;;;;;5.30;4.80;;;23.80;99.90;;;;;;5015831;28;20912;-81
2022/08/20 08:40:21;;;;;;;5.20;4.80;;;23.90;99.90;;;;;;5015993;28;20535;-80
2022/08/20 08:42:54;;;;;;;4.87;4.57;;;23.90;99.90;;;;;;5015241;28;20498;-81
2022/08/20 08:45:21;;;;;;;5.25;4.85;;;23.90;99.90;;;;;;5017409;28;20596;-80
2022/08/20 08:47:49;;;;;;;5.00;4.55;;;23.80;99.90;;;;;;5017065;28;20200;-80
2022/08/20 08:50:21;;;;;;;6.80;5.20;;;23.60;99.90;;;;;;5016437;28;20285;-80
2022/08/20 08:52:52;;;;;;;4.83;4.53;;;23.80;99.90;;;;;;5016753;28;20475;-81
2022/08/20 08:55:21;;;;;;;5.83;5.43;;;23.60;99.90;;;;;;5017013;28;20450;-80
2022/08/20 08:57:49;;;;;;;5.68;5.18;;;23.50;99.90;;;;;;5016907;28;21039;-81
2022/08/20 09:00:20;;;;;;;7.60;5.23;;;23.40;99.90;;;;;;5016746;28;20594;-80
2022/08/20 09:03:01;;;;;;;6.03;5.27;;;23.30;99.90;;;;;;5015971;28;20480;-81
2022/08/20 09:05:32;;;;;;;6.53;5.80;;;23.50;99.90;;;;;;5015855;28;20534;-81
2022/08/20 09:08:02;;;;;;;6.70;6.10;;;23.60;99.90;;;;;;5016064;28;20484;-80
2022/08/20 09:10:29;;;;;;;5.90;5.40;;;23.60;99.90;;;;;;5016324;28;20208;-80
2022/08/20 09:12:56;;;;;;;5.90;5.37;;;23.50;99.90;;;;;;5015402;28;20920;-80
2022/08/20 09:15:22;;;;;;;6.37;5.87;;;23.60;99.90;;;;;;5016267;28;20451;-80
2022/08/20 09:17:49;;;;;;;6.60;6.03;;;23.50;99.90;;;;;;5016115;28;20483;-80
2022/08/20 09:20:18;;;;;;;8.45;6.53;;;23.40;99.90;;;;;;5015659;28;21027;-80
2022/08/20 09:22:45;;;;;;;6.67;6.07;;;23.40;99.90;;;;;;5015422;28;20233;-80
2022/08/20 09:25:11;;;;;;;8.17;6.80;;;23.50;99.90;;;;;;5016022;28;20546;-81
2022/08/20 09:27:38;;;;;;;6.37;5.77;;;23.50;99.90;;;;;;5015997;28;20451;-79
2022/08/20 09:30:06;;;;;;;4.70;4.30;;;23.40;99.90;;;;;;5016023;28;20875;-80
2022/08/20 09:32:32;;;;;;;5.80;5.00;;;23.20;99.90;;;;;;5015247;28;20498;-81
2022/08/20 09:34:59;;;;;;;5.90;4.10;;;22.90;99.90;;;;;;5015038;28;20451;-80
2022/08/20 09:37:29;;;;;;;9.40;4.60;;;22.60;99.90;;;;;;5015477;28;20848;-80
2022/08/20 09:39:56;;;;;;;14.90;5.67;;;22.20;99.90;;;;;;5018049;28;21074;-81
2022/08/20 09:42:26;;;;;;;12.13;5.50;;;21.90;99.90;;;;;;5021782;28;20498;-82
2022/08/20 09:44:54;;;;;;;6.43;4.73;;;21.50;99.90;;;;;;5021722;28;20463;-81
2022/08/20 09:47:21;;;;;;;7.37;4.80;;;21.40;99.90;;;;;;5022844;28;20583;-82
2022/08/20 09:49:48;;;;;;;7.37;4.90;;;21.30;99.90;;;;;;5023361;28;20456;-81
2022/08/20 09:52:21;;;;;;;9.00;4.77;;;21.30;99.90;;;;;;5023810;28;20811;-81
2022/08/20 09:54:50;;;;;;;5.00;4.50;;;21.30;99.90;;;;;;5022040;28;21050;-82
2022/08/20 09:57:17;;;;;;;4.87;4.53;;;21.30;99.90;;;;;;5021886;28;20525;-81
2022/08/20 09:59:47;;;;;;;4.95;4.55;;;21.30;99.90;;;;;;5020795;28;20943;-82
2022/08/20 10:02:14;;;;;;;5.60;5.10;;;21.30;99.90;;;;;;5020071;28;20644;-82
2022/08/20 10:04:41;;;;;;;5.33;4.83;;;21.20;99.90;;;;;;5019494;28;20490;-82
2022/08/20 10:07:08;;;;;;;6.23;5.63;;;21.40;99.90;;;;;;5018944;28;20497;-81
2022/08/20 10:09:35;;;;;;;6.97;5.90;;;21.40;99.90;;;;;;5019335;28;20534;-82
2022/08/20 10:12:04;;;;;;;6.10;5.50;;;21.50;99.90;;;;;;5018806;28;20508;-82
2022/08/20 10:14:31;;;;;;;6.37;5.77;;;21.50;99.90;;;;;;5018897;28;20208;-81
2022/08/20 10:16:59;;;;;;;5.97;5.47;;;21.80;99.90;;;;;;5018640;28;20540;-81
2022/08/20 10:19:26;;;;;;;6.70;6.10;;;22.20;99.90;;;;;;5017970;28;20447;-81
2022/08/20 10:21:53;;;;;;;7.30;6.70;;;22.50;99.90;;;;;;5017290;28;20518;-80
2022/08/20 10:24:21;;;;;;;6.47;5.97;;;22.90;99.90;;;;;;5017195;28;20455;-80
2022/08/20 10:26:48;;;;;;;8.30;7.50;;;23.00;99.90;;;;;;5017745;28;20451;-81
2022/08/20 10:29:16;;;;;;;7.63;6.87;;;23.20;99.90;;;;;;5016644;28;20525;-80
2022/08/20 10:31:43;;;;;;;7.50;6.30;;;23.60;99.90;;;;;;5015704;28;20521;-79
2022/08/20 10:34:10;;;;;;;12.23;6.43;;;24.40;99.90;;;;;;5012869;28;20466;-79
2022/08/20 10:36:36;;;;;;;6.17;5.67;;;24.90;99.90;;;;;;5012661;28;20606;-80
2022/08/20 10:39:04;;;;;;;5.13;4.70;;;25.50;99.90;;;;;;5013369;28;20529;-80
2022/08/20 10:41:31;;;;;;;5.83;5.13;;;25.80;99.90;;;;;;5014469;28;20529;-80
2022/08/20 10:43:57;;;;;;;4.80;4.40;;;26.40;99.90;;;;;;5014911;28;20477;-80
2022/08/20 10:46:25;;;;;;;5.00;4.65;;;26.80;99.90;;;;;;5015882;28;20512;-80
2022/08/20 10:48:52;;;;;;;4.70;4.40;;;27.20;99.90;;;;;;5016188;28;20204;-80
2022/08/20 10:51:19;;;;;;;4.53;4.20;;;27.30;99.90;;;;;;5015273;28;20483;-80
2022/08/20 10:53:45;;;;;;;4.30;4.00;;;27.50;99.90;;;;;;5012414;28;20484;-81
2022/08/20 10:56:12;;;;;;;4.67;4.27;;;27.70;99.90;;;;;;5015072;28;20950;-80
2022/08/20 10:58:39;;;;;;;4.10;3.80;;;27.90;99.90;;;;;;5018179;28;20490;-78
2022/08/20 11:01:05;;;;;;;4.53;4.13;;;28.30;99.90;;;;;;5019866;28;20450;-80
2022/08/20 11:03:33;;;;;;;3.80;3.60;;;28.70;99.90;;;;;;5021693;28;20458;-79
2022/08/20 11:06:01;;;;;;;6.23;5.27;;;29.00;99.90;;;;;;5018025;28;20973;-79
2022/08/20 11:08:27;;;;;;;5.88;4.28;;;29.20;99.90;;;;;;5018678;28;20446;-79
2022/08/20 11:10:54;;;;;;;4.37;4.07;;;29.50;99.90;;;;;;5018533;28;20253;-79
2022/08/20 11:13:21;;;;;;;3.92;3.70;;;29.70;99.90;;;;;;5018405;28;21064;-79
2022/08/20 11:15:48;;;;;;;4.30;3.90;;;29.90;99.90;;;;;;5018335;28;20208;-79
2022/08/20 11:18:15;;;;;;;3.97;3.77;;;30.20;99.90;;;;;;5018358;28;20994;-78
2022/08/20 11:20:43;;;;;;;3.70;3.50;;;30.40;99.90;;;;;;5018705;28;20447;-79
2022/08/20 11:23:09;;;;;;;4.22;3.45;;;30.40;99.90;;;;;;5019050;28;20470;-80
2022/08/20 11:25:36;;;;;;;3.60;3.33;;;30.50;99.90;;;;;;5019475;28;20659;-79
2022/08/20 11:28:04;;;;;;;3.80;3.60;;;30.50;99.90;;;;;;5019340;28;20476;-79
2022/08/20 11:30:33;;;;;;;3.53;3.33;;;30.60;99.90;;;;;;5019548;28;20492;-79
2022/08/20 11:33:01;;;;;;;3.80;3.60;;;30.60;99.90;;;;;;5018901;28;20500;-80
2022/08/20 11:35:31;;;;;;;3.95;3.40;;;30.30;99.90;;;;;;5019293;28;20938;-79
2022/08/20 11:38:00;;;;;;;3.30;3.10;;;30.10;99.90;;;;;;5018824;28;20235;-78
2022/08/20 11:40:27;;;;;;;3.50;3.30;;;30.10;99.90;;;;;;5018196;28;20458;-79
2022/08/20 11:42:55;;;;;;;4.13;3.83;;;29.90;99.90;;;;;;5018074;28;20989;-78
2022/08/20 11:45:21;;;;;;;4.90;3.17;;;30.10;99.90;;;;;;5018088;28;20450;-80
2022/08/20 11:47:48;;;;;;;3.40;3.20;;;30.00;99.90;;;;;;5017936;28;20624;-79
2022/08/20 11:50:19;;;;;;;2.50;2.40;;;29.70;99.90;;;;;;5017845;28;20955;-79
2022/08/20 11:52:46;;;;;;;2.90;2.70;;;29.70;99.90;;;;;;5018129;28;20974;-80
2022/08/20 11:55:16;;;;;;;2.50;2.40;;;29.60;99.90;;;;;;5017856;28;20939;-79
2022/08/20 11:57:46;;;;;;;2.17;2.07;;;29.30;99.90;;;;;;5018096;28;20582;-80
2022/08/20 12:00:15;;;;;;;2.08;1.90;;;29.30;99.90;;;;;;5018952;28;20446;-80
2022/08/20 12:02:43;;;;;;;2.10;2.00;;;29.40;99.90;;;;;;5019510;28;20739;-81
2022/08/20 12:05:10;;;;;;;2.30;2.10;;;29.40;99.90;;;;;;5018593;28;20459;-80
2022/08/20 12:07:37;;;;;;;1.80;1.70;;;29.90;99.90;;;;;;5018681;28;20449;-80
2022/08/20 12:10:06;;;;;;;3.00;2.50;;;30.40;99.90;;;;;;5016433;28;20446;-79
2022/08/20 12:12:34;;;;;;;1.80;1.70;;;30.90;99.90;;;;;;5016504;28;20564;-80
2022/08/20 12:15:00;;;;;;;1.80;1.70;;;30.90;99.90;;;;;;5015549;28;21012;-80
2022/08/20 12:17:31;;;;;;;1.67;1.57;;;30.90;99.90;;;;;;5015621;28;20901;-80
2022/08/20 12:19:59;;;;;;;1.67;1.47;;;31.10;99.90;;;;;;5015953;28;20451;-81
2022/08/20 12:22:26;;;;;;;1.70;1.50;;;31.40;99.90;;;;;;5016594;28;20470;-80
2022/08/20 12:24:54;;;;;;;1.67;1.57;;;31.20;99.90;;;;;;5018168;28;20446;-80
2022/08/20 12:27:22;;;;;;;2.60;1.77;;;30.70;99.90;;;;;;5016759;28;20862;-80
2022/08/20 12:29:52;;;;;;;1.90;1.70;;;30.00;99.90;;;;;;5015399;28;20461;-80
2022/08/20 12:32:20;;;;;;;1.90;1.80;;;30.10;99.90;;;;;;5015580;28;20474;-80
2022/08/20 12:34:47;;;;;;;1.97;1.73;;;30.40;99.90;;;;;;5015369;28;20954;-83
2022/08/20 12:37:16;;;;;;;1.57;1.47;;;30.60;99.90;;;;;;5015792;28;20540;-80
2022/08/20 12:39:46;;;;;;;1.90;1.80;;;30.40;99.90;;;;;;5015854;28;20459;-80
2022/08/20 12:42:14;;;;;;;4.83;4.43;;;30.50;99.90;;;;;;5014585;28;20538;-79
2022/08/20 12:44:41;;;;;;;2.20;2.00;;;30.70;99.90;;;;;;5014604;28;20954;-80
2022/08/20 12:47:12;;;;;;;2.00;1.90;;;30.30;99.90;;;;;;5014112;28;20457;-78
2022/08/20 12:49:41;;;;;;;2.70;1.83;;;30.20;99.90;;;;;;5014200;28;20455;-78